<?xml version="1.0" encoding="UTF-8" standalone="no" ?>
<gpx xmlns="http://www.topografix.com/GPX/1/1" xmlns:xsi="http://www.w3.org/2001/XMLSchema-instance" xsi:schemaLocation="http://www.topografix.com/GPX/1/1 http://www.topografix.com/GPX/1/1/gpx.xsd" version="1.1" creator="VisuGPX - https://www.visugpx.com">
  <metadata>
    <name>VacancesDricouZoe</name>
  </metadata>
  <trk>
    <name><![CDATA[Journal actif: 2021-06-30 16:03]]></name>
    <trkseg>
      <trkpt lat="45.00234" lon="-1.19346">
        <ele>2.54</ele>
        <time>2021-06-30T18:03:43Z</time>
      </trkpt>
      <trkpt lat="45.00234" lon="-1.19346">
        <ele>2.06</ele>
        <time>2021-06-30T18:04:22Z</time>
      </trkpt>
      <trkpt lat="45.00228" lon="-1.19344">
        <ele>2.54</ele>
        <time>2021-06-30T18:04:23Z</time>
      </trkpt>
      <trkpt lat="45.00228" lon="-1.19344">
        <ele>2.54</ele>
        <time>2021-06-30T18:04:24Z</time>
      </trkpt>
      <trkpt lat="45.002" lon="-1.19338">
        <ele>3.02</ele>
        <time>2021-06-30T18:04:40Z</time>
      </trkpt>
      <trkpt lat="45.0016" lon="-1.19305">
        <ele>3.5</ele>
        <time>2021-06-30T18:04:52Z</time>
      </trkpt>
      <trkpt lat="45.00123" lon="-1.19242">
        <ele>2.54</ele>
        <time>2021-06-30T18:05:06Z</time>
      </trkpt>
      <trkpt lat="45.00115" lon="-1.19228">
        <ele>3.02</ele>
        <time>2021-06-30T18:05:10Z</time>
      </trkpt>
      <trkpt lat="45.00117" lon="-1.19224">
        <ele>3.02</ele>
        <time>2021-06-30T18:05:11Z</time>
      </trkpt>
      <trkpt lat="45.00118" lon="-1.19219">
        <ele>3.5</ele>
        <time>2021-06-30T18:05:12Z</time>
      </trkpt>
      <trkpt lat="45.0015" lon="-1.19165">
        <ele>4.94</ele>
        <time>2021-06-30T18:05:20Z</time>
      </trkpt>
      <trkpt lat="45.00217" lon="-1.18989">
        <ele>6.87</ele>
        <time>2021-06-30T18:05:36Z</time>
      </trkpt>
      <trkpt lat="45.00244" lon="-1.18854">
        <ele>4.46</ele>
        <time>2021-06-30T18:05:48Z</time>
      </trkpt>
      <trkpt lat="45.00252" lon="-1.18655">
        <ele>3.5</ele>
        <time>2021-06-30T18:06:04Z</time>
      </trkpt>
      <trkpt lat="45.00255" lon="-1.18583">
        <ele>3.02</ele>
        <time>2021-06-30T18:06:11Z</time>
      </trkpt>
      <trkpt lat="45.00255" lon="-1.18573">
        <ele>3.5</ele>
        <time>2021-06-30T18:06:13Z</time>
      </trkpt>
      <trkpt lat="45.00255" lon="-1.18554">
        <ele>3.98</ele>
        <time>2021-06-30T18:06:14Z</time>
      </trkpt>
      <trkpt lat="45.00255" lon="-1.18541">
        <ele>3.98</ele>
        <time>2021-06-30T18:06:15Z</time>
      </trkpt>
      <trkpt lat="45.00255" lon="-1.18541">
        <ele>3.98</ele>
        <time>2021-06-30T18:06:16Z</time>
      </trkpt>
      <trkpt lat="45.00255" lon="-1.18531">
        <ele>3.98</ele>
        <time>2021-06-30T18:06:17Z</time>
      </trkpt>
      <trkpt lat="45.00255" lon="-1.18521">
        <ele>3.98</ele>
        <time>2021-06-30T18:06:18Z</time>
      </trkpt>
      <trkpt lat="45.00258" lon="-1.1847">
        <ele>4.46</ele>
        <time>2021-06-30T18:06:22Z</time>
      </trkpt>
      <trkpt lat="45.00259" lon="-1.18454">
        <ele>4.46</ele>
        <time>2021-06-30T18:06:23Z</time>
      </trkpt>
      <trkpt lat="45.00291" lon="-1.18299">
        <ele>7.35</ele>
        <time>2021-06-30T18:06:33Z</time>
      </trkpt>
      <trkpt lat="45.00301" lon="-1.18272">
        <ele>5.91</ele>
        <time>2021-06-30T18:06:35Z</time>
      </trkpt>
      <trkpt lat="45.00309" lon="-1.18249">
        <ele>6.87</ele>
        <time>2021-06-30T18:06:37Z</time>
      </trkpt>
      <trkpt lat="45.00314" lon="-1.18238">
        <ele>6.39</ele>
        <time>2021-06-30T18:06:38Z</time>
      </trkpt>
      <trkpt lat="45.0032" lon="-1.18229">
        <ele>6.39</ele>
        <time>2021-06-30T18:06:39Z</time>
      </trkpt>
      <trkpt lat="45.00325" lon="-1.18222">
        <ele>7.35</ele>
        <time>2021-06-30T18:06:40Z</time>
      </trkpt>
      <trkpt lat="45.00331" lon="-1.18217">
        <ele>6.87</ele>
        <time>2021-06-30T18:06:41Z</time>
      </trkpt>
      <trkpt lat="45.00337" lon="-1.18212">
        <ele>7.35</ele>
        <time>2021-06-30T18:06:42Z</time>
      </trkpt>
      <trkpt lat="45.00341" lon="-1.18208">
        <ele>7.83</ele>
        <time>2021-06-30T18:06:43Z</time>
      </trkpt>
      <trkpt lat="45.00345" lon="-1.18205">
        <ele>7.83</ele>
        <time>2021-06-30T18:06:44Z</time>
      </trkpt>
      <trkpt lat="45.00344" lon="-1.18174">
        <ele>8.31</ele>
        <time>2021-06-30T18:06:46Z</time>
      </trkpt>
      <trkpt lat="45.00344" lon="-1.18174">
        <ele>8.79</ele>
        <time>2021-06-30T18:06:47Z</time>
      </trkpt>
      <trkpt lat="45.00349" lon="-1.18168">
        <ele>9.27</ele>
        <time>2021-06-30T18:06:48Z</time>
      </trkpt>
      <trkpt lat="45.00353" lon="-1.18161">
        <ele>9.27</ele>
        <time>2021-06-30T18:06:49Z</time>
      </trkpt>
      <trkpt lat="45.00359" lon="-1.18157">
        <ele>9.27</ele>
        <time>2021-06-30T18:06:50Z</time>
      </trkpt>
      <trkpt lat="45.00366" lon="-1.18155">
        <ele>8.79</ele>
        <time>2021-06-30T18:06:51Z</time>
      </trkpt>
      <trkpt lat="45.00372" lon="-1.18154">
        <ele>8.79</ele>
        <time>2021-06-30T18:06:52Z</time>
      </trkpt>
      <trkpt lat="45.00382" lon="-1.18145">
        <ele>8.79</ele>
        <time>2021-06-30T18:06:53Z</time>
      </trkpt>
      <trkpt lat="45.00382" lon="-1.18145">
        <ele>9.27</ele>
        <time>2021-06-30T18:06:54Z</time>
      </trkpt>
      <trkpt lat="45.00387" lon="-1.1814">
        <ele>9.27</ele>
        <time>2021-06-30T18:06:55Z</time>
      </trkpt>
      <trkpt lat="45.00393" lon="-1.18133">
        <ele>9.27</ele>
        <time>2021-06-30T18:06:56Z</time>
      </trkpt>
      <trkpt lat="45.004" lon="-1.18126">
        <ele>9.75</ele>
        <time>2021-06-30T18:06:57Z</time>
      </trkpt>
      <trkpt lat="45.00407" lon="-1.18119">
        <ele>9.75</ele>
        <time>2021-06-30T18:06:58Z</time>
      </trkpt>
      <trkpt lat="45.00486" lon="-1.18015">
        <ele>10.23</ele>
        <time>2021-06-30T18:07:08Z</time>
      </trkpt>
      <trkpt lat="45.00588" lon="-1.17834">
        <ele>15.52</ele>
        <time>2021-06-30T18:07:21Z</time>
      </trkpt>
      <trkpt lat="45.00596" lon="-1.17802">
        <ele>16</ele>
        <time>2021-06-30T18:07:23Z</time>
      </trkpt>
      <trkpt lat="45.00599" lon="-1.17784">
        <ele>15.52</ele>
        <time>2021-06-30T18:07:24Z</time>
      </trkpt>
      <trkpt lat="45.006" lon="-1.17639">
        <ele>11.19</ele>
        <time>2021-06-30T18:07:33Z</time>
      </trkpt>
      <trkpt lat="45.00599" lon="-1.17631">
        <ele>11.67</ele>
        <time>2021-06-30T18:07:35Z</time>
      </trkpt>
      <trkpt lat="45.00597" lon="-1.17623">
        <ele>11.67</ele>
        <time>2021-06-30T18:07:36Z</time>
      </trkpt>
      <trkpt lat="45.00593" lon="-1.1761">
        <ele>12.15</ele>
        <time>2021-06-30T18:07:38Z</time>
      </trkpt>
      <trkpt lat="45.0059" lon="-1.17603">
        <ele>12.15</ele>
        <time>2021-06-30T18:07:39Z</time>
      </trkpt>
      <trkpt lat="45.00587" lon="-1.17596">
        <ele>12.63</ele>
        <time>2021-06-30T18:07:40Z</time>
      </trkpt>
      <trkpt lat="45.00588" lon="-1.17586">
        <ele>12.63</ele>
        <time>2021-06-30T18:07:41Z</time>
      </trkpt>
      <trkpt lat="45.0059" lon="-1.1758">
        <ele>13.12</ele>
        <time>2021-06-30T18:07:42Z</time>
      </trkpt>
      <trkpt lat="45.00593" lon="-1.17575">
        <ele>13.12</ele>
        <time>2021-06-30T18:07:43Z</time>
      </trkpt>
      <trkpt lat="45.00597" lon="-1.17569">
        <ele>12.15</ele>
        <time>2021-06-30T18:07:44Z</time>
      </trkpt>
      <trkpt lat="45.006" lon="-1.17567">
        <ele>11.67</ele>
        <time>2021-06-30T18:07:45Z</time>
      </trkpt>
      <trkpt lat="45.00606" lon="-1.17567">
        <ele>10.71</ele>
        <time>2021-06-30T18:07:46Z</time>
      </trkpt>
      <trkpt lat="45.00612" lon="-1.17567">
        <ele>10.23</ele>
        <time>2021-06-30T18:07:47Z</time>
      </trkpt>
      <trkpt lat="45.00618" lon="-1.17567">
        <ele>9.75</ele>
        <time>2021-06-30T18:07:48Z</time>
      </trkpt>
      <trkpt lat="45.00622" lon="-1.17573">
        <ele>9.27</ele>
        <time>2021-06-30T18:07:49Z</time>
      </trkpt>
      <trkpt lat="45.00629" lon="-1.1758">
        <ele>8.79</ele>
        <time>2021-06-30T18:07:50Z</time>
      </trkpt>
      <trkpt lat="45.00635" lon="-1.17583">
        <ele>8.31</ele>
        <time>2021-06-30T18:07:51Z</time>
      </trkpt>
      <trkpt lat="45.00642" lon="-1.17585">
        <ele>7.83</ele>
        <time>2021-06-30T18:07:52Z</time>
      </trkpt>
      <trkpt lat="45.00649" lon="-1.17588">
        <ele>7.35</ele>
        <time>2021-06-30T18:07:53Z</time>
      </trkpt>
      <trkpt lat="45.00658" lon="-1.1759">
        <ele>6.87</ele>
        <time>2021-06-30T18:07:54Z</time>
      </trkpt>
      <trkpt lat="45.00667" lon="-1.1759">
        <ele>6.87</ele>
        <time>2021-06-30T18:07:55Z</time>
      </trkpt>
      <trkpt lat="45.00793" lon="-1.17583">
        <ele>8.31</ele>
        <time>2021-06-30T18:08:06Z</time>
      </trkpt>
      <trkpt lat="45.00979" lon="-1.1756">
        <ele>10.23</ele>
        <time>2021-06-30T18:08:22Z</time>
      </trkpt>
      <trkpt lat="45.00991" lon="-1.17554">
        <ele>9.75</ele>
        <time>2021-06-30T18:08:23Z</time>
      </trkpt>
      <trkpt lat="45.01015" lon="-1.17541">
        <ele>9.75</ele>
        <time>2021-06-30T18:08:24Z</time>
      </trkpt>
      <trkpt lat="45.01026" lon="-1.1753">
        <ele>9.75</ele>
        <time>2021-06-30T18:08:25Z</time>
      </trkpt>
      <trkpt lat="45.01106" lon="-1.17435">
        <ele>11.19</ele>
        <time>2021-06-30T18:08:34Z</time>
      </trkpt>
      <trkpt lat="45.01201" lon="-1.17293">
        <ele>9.75</ele>
        <time>2021-06-30T18:08:44Z</time>
      </trkpt>
      <trkpt lat="45.01311" lon="-1.17232">
        <ele>8.79</ele>
        <time>2021-06-30T18:08:52Z</time>
      </trkpt>
      <trkpt lat="45.01427" lon="-1.17243">
        <ele>13.6</ele>
        <time>2021-06-30T18:09:00Z</time>
      </trkpt>
      <trkpt lat="45.01539" lon="-1.17324">
        <ele>12.15</ele>
        <time>2021-06-30T18:09:09Z</time>
      </trkpt>
      <trkpt lat="45.01725" lon="-1.17498">
        <ele>9.75</ele>
        <time>2021-06-30T18:09:25Z</time>
      </trkpt>
      <trkpt lat="45.01857" lon="-1.17655">
        <ele>11.19</ele>
        <time>2021-06-30T18:09:37Z</time>
      </trkpt>
      <trkpt lat="45.0197" lon="-1.17761">
        <ele>7.83</ele>
        <time>2021-06-30T18:09:47Z</time>
      </trkpt>
      <trkpt lat="45.01998" lon="-1.17769">
        <ele>8.79</ele>
        <time>2021-06-30T18:09:49Z</time>
      </trkpt>
      <trkpt lat="45.02041" lon="-1.1777">
        <ele>9.75</ele>
        <time>2021-06-30T18:09:51Z</time>
      </trkpt>
      <trkpt lat="45.02041" lon="-1.1777">
        <ele>9.75</ele>
        <time>2021-06-30T18:09:52Z</time>
      </trkpt>
      <trkpt lat="45.02055" lon="-1.17768">
        <ele>9.75</ele>
        <time>2021-06-30T18:09:53Z</time>
      </trkpt>
      <trkpt lat="45.02068" lon="-1.17763">
        <ele>10.23</ele>
        <time>2021-06-30T18:09:54Z</time>
      </trkpt>
      <trkpt lat="45.02095" lon="-1.17751">
        <ele>10.23</ele>
        <time>2021-06-30T18:09:55Z</time>
      </trkpt>
      <trkpt lat="45.02302" lon="-1.17618">
        <ele>12.15</ele>
        <time>2021-06-30T18:10:10Z</time>
      </trkpt>
      <trkpt lat="45.02494" lon="-1.17521">
        <ele>9.75</ele>
        <time>2021-06-30T18:10:25Z</time>
      </trkpt>
      <trkpt lat="45.02663" lon="-1.17518">
        <ele>11.19</ele>
        <time>2021-06-30T18:10:36Z</time>
      </trkpt>
      <trkpt lat="45.02899" lon="-1.17509">
        <ele>10.71</ele>
        <time>2021-06-30T18:10:52Z</time>
      </trkpt>
      <trkpt lat="45.03052" lon="-1.17504">
        <ele>13.12</ele>
        <time>2021-06-30T18:11:04Z</time>
      </trkpt>
      <trkpt lat="45.03228" lon="-1.17565">
        <ele>8.79</ele>
        <time>2021-06-30T18:11:18Z</time>
      </trkpt>
      <trkpt lat="45.0327" lon="-1.17579">
        <ele>8.31</ele>
        <time>2021-06-30T18:11:21Z</time>
      </trkpt>
      <trkpt lat="45.03283" lon="-1.17581">
        <ele>8.31</ele>
        <time>2021-06-30T18:11:22Z</time>
      </trkpt>
      <trkpt lat="45.03297" lon="-1.1758">
        <ele>8.31</ele>
        <time>2021-06-30T18:11:23Z</time>
      </trkpt>
      <trkpt lat="45.03311" lon="-1.17578">
        <ele>8.79</ele>
        <time>2021-06-30T18:11:24Z</time>
      </trkpt>
      <trkpt lat="45.03325" lon="-1.17576">
        <ele>8.79</ele>
        <time>2021-06-30T18:11:25Z</time>
      </trkpt>
      <trkpt lat="45.03468" lon="-1.1755">
        <ele>14.08</ele>
        <time>2021-06-30T18:11:35Z</time>
      </trkpt>
      <trkpt lat="45.03695" lon="-1.17588">
        <ele>15.52</ele>
        <time>2021-06-30T18:11:50Z</time>
      </trkpt>
      <trkpt lat="45.0389" lon="-1.17615">
        <ele>13.12</ele>
        <time>2021-06-30T18:12:03Z</time>
      </trkpt>
      <trkpt lat="45.04062" lon="-1.17593">
        <ele>13.6</ele>
        <time>2021-06-30T18:12:15Z</time>
      </trkpt>
      <trkpt lat="45.04164" lon="-1.17535">
        <ele>13.6</ele>
        <time>2021-06-30T18:12:23Z</time>
      </trkpt>
      <trkpt lat="45.0432" lon="-1.17418">
        <ele>12.15</ele>
        <time>2021-06-30T18:12:35Z</time>
      </trkpt>
      <trkpt lat="45.04409" lon="-1.17364">
        <ele>14.56</ele>
        <time>2021-06-30T18:12:41Z</time>
      </trkpt>
      <trkpt lat="45.04409" lon="-1.17364">
        <ele>16</ele>
        <time>2021-06-30T18:12:42Z</time>
      </trkpt>
      <trkpt lat="45.04424" lon="-1.17363">
        <ele>16.96</ele>
        <time>2021-06-30T18:12:43Z</time>
      </trkpt>
      <trkpt lat="45.04507" lon="-1.17356">
        <ele>18.4</ele>
        <time>2021-06-30T18:12:49Z</time>
      </trkpt>
      <trkpt lat="45.0452" lon="-1.17357">
        <ele>18.4</ele>
        <time>2021-06-30T18:12:50Z</time>
      </trkpt>
      <trkpt lat="45.04533" lon="-1.17362">
        <ele>17.92</ele>
        <time>2021-06-30T18:12:51Z</time>
      </trkpt>
      <trkpt lat="45.04547" lon="-1.17368">
        <ele>16.48</ele>
        <time>2021-06-30T18:12:52Z</time>
      </trkpt>
      <trkpt lat="45.04561" lon="-1.17374">
        <ele>15.52</ele>
        <time>2021-06-30T18:12:53Z</time>
      </trkpt>
      <trkpt lat="45.04671" lon="-1.17405">
        <ele>17.44</ele>
        <time>2021-06-30T18:13:01Z</time>
      </trkpt>
      <trkpt lat="45.04839" lon="-1.17403">
        <ele>16.96</ele>
        <time>2021-06-30T18:13:12Z</time>
      </trkpt>
      <trkpt lat="45.04967" lon="-1.17338">
        <ele>16.48</ele>
        <time>2021-06-30T18:13:23Z</time>
      </trkpt>
      <trkpt lat="45.04979" lon="-1.1733">
        <ele>16.96</ele>
        <time>2021-06-30T18:13:24Z</time>
      </trkpt>
      <trkpt lat="45.04992" lon="-1.17322">
        <ele>15.52</ele>
        <time>2021-06-30T18:13:25Z</time>
      </trkpt>
      <trkpt lat="45.05004" lon="-1.17317">
        <ele>16</ele>
        <time>2021-06-30T18:13:26Z</time>
      </trkpt>
      <trkpt lat="45.05017" lon="-1.17312">
        <ele>16.48</ele>
        <time>2021-06-30T18:13:27Z</time>
      </trkpt>
      <trkpt lat="45.05029" lon="-1.17312">
        <ele>16.96</ele>
        <time>2021-06-30T18:13:28Z</time>
      </trkpt>
      <trkpt lat="45.05041" lon="-1.17314">
        <ele>16.48</ele>
        <time>2021-06-30T18:13:29Z</time>
      </trkpt>
      <trkpt lat="45.05055" lon="-1.17315">
        <ele>16.48</ele>
        <time>2021-06-30T18:13:30Z</time>
      </trkpt>
      <trkpt lat="45.05068" lon="-1.17319">
        <ele>15.52</ele>
        <time>2021-06-30T18:13:31Z</time>
      </trkpt>
      <trkpt lat="45.05081" lon="-1.17327">
        <ele>13.12</ele>
        <time>2021-06-30T18:13:32Z</time>
      </trkpt>
      <trkpt lat="45.05093" lon="-1.17337">
        <ele>11.19</ele>
        <time>2021-06-30T18:13:33Z</time>
      </trkpt>
      <trkpt lat="45.05236" lon="-1.17478">
        <ele>7.83</ele>
        <time>2021-06-30T18:13:45Z</time>
      </trkpt>
      <trkpt lat="45.05278" lon="-1.17516">
        <ele>10.23</ele>
        <time>2021-06-30T18:13:49Z</time>
      </trkpt>
      <trkpt lat="45.05289" lon="-1.17523">
        <ele>11.67</ele>
        <time>2021-06-30T18:13:50Z</time>
      </trkpt>
      <trkpt lat="45.05299" lon="-1.17529">
        <ele>10.23</ele>
        <time>2021-06-30T18:13:51Z</time>
      </trkpt>
      <trkpt lat="45.0531" lon="-1.17532">
        <ele>10.71</ele>
        <time>2021-06-30T18:13:52Z</time>
      </trkpt>
      <trkpt lat="45.05322" lon="-1.17535">
        <ele>11.19</ele>
        <time>2021-06-30T18:13:53Z</time>
      </trkpt>
      <trkpt lat="45.05481" lon="-1.17591">
        <ele>12.63</ele>
        <time>2021-06-30T18:14:05Z</time>
      </trkpt>
      <trkpt lat="45.05546" lon="-1.17624">
        <ele>12.63</ele>
        <time>2021-06-30T18:14:10Z</time>
      </trkpt>
      <trkpt lat="45.05625" lon="-1.17712">
        <ele>12.63</ele>
        <time>2021-06-30T18:14:17Z</time>
      </trkpt>
      <trkpt lat="45.05636" lon="-1.17721">
        <ele>12.15</ele>
        <time>2021-06-30T18:14:18Z</time>
      </trkpt>
      <trkpt lat="45.05649" lon="-1.17728">
        <ele>12.15</ele>
        <time>2021-06-30T18:14:19Z</time>
      </trkpt>
      <trkpt lat="45.05662" lon="-1.17735">
        <ele>12.63</ele>
        <time>2021-06-30T18:14:20Z</time>
      </trkpt>
      <trkpt lat="45.05675" lon="-1.17738">
        <ele>12.63</ele>
        <time>2021-06-30T18:14:21Z</time>
      </trkpt>
      <trkpt lat="45.05689" lon="-1.17738">
        <ele>13.12</ele>
        <time>2021-06-30T18:14:22Z</time>
      </trkpt>
      <trkpt lat="45.05704" lon="-1.17738">
        <ele>12.63</ele>
        <time>2021-06-30T18:14:23Z</time>
      </trkpt>
      <trkpt lat="45.05789" lon="-1.17721">
        <ele>12.15</ele>
        <time>2021-06-30T18:14:29Z</time>
      </trkpt>
      <trkpt lat="45.05803" lon="-1.17717">
        <ele>12.63</ele>
        <time>2021-06-30T18:14:30Z</time>
      </trkpt>
      <trkpt lat="45.05815" lon="-1.17707">
        <ele>11.19</ele>
        <time>2021-06-30T18:14:31Z</time>
      </trkpt>
      <trkpt lat="45.05826" lon="-1.17697">
        <ele>10.23</ele>
        <time>2021-06-30T18:14:32Z</time>
      </trkpt>
      <trkpt lat="45.05836" lon="-1.17685">
        <ele>10.71</ele>
        <time>2021-06-30T18:14:33Z</time>
      </trkpt>
      <trkpt lat="45.05846" lon="-1.17669">
        <ele>11.19</ele>
        <time>2021-06-30T18:14:34Z</time>
      </trkpt>
      <trkpt lat="45.05898" lon="-1.17598">
        <ele>11.19</ele>
        <time>2021-06-30T18:14:39Z</time>
      </trkpt>
      <trkpt lat="45.05909" lon="-1.17588">
        <ele>10.71</ele>
        <time>2021-06-30T18:14:40Z</time>
      </trkpt>
      <trkpt lat="45.05921" lon="-1.17576">
        <ele>8.79</ele>
        <time>2021-06-30T18:14:41Z</time>
      </trkpt>
      <trkpt lat="45.05934" lon="-1.17568">
        <ele>8.31</ele>
        <time>2021-06-30T18:14:42Z</time>
      </trkpt>
      <trkpt lat="45.05949" lon="-1.17562">
        <ele>7.35</ele>
        <time>2021-06-30T18:14:43Z</time>
      </trkpt>
      <trkpt lat="45.05962" lon="-1.17558">
        <ele>7.35</ele>
        <time>2021-06-30T18:14:44Z</time>
      </trkpt>
      <trkpt lat="45.06088" lon="-1.17545">
        <ele>10.23</ele>
        <time>2021-06-30T18:14:52Z</time>
      </trkpt>
      <trkpt lat="45.06103" lon="-1.17546">
        <ele>10.23</ele>
        <time>2021-06-30T18:14:53Z</time>
      </trkpt>
      <trkpt lat="45.06118" lon="-1.1755">
        <ele>9.75</ele>
        <time>2021-06-30T18:14:54Z</time>
      </trkpt>
      <trkpt lat="45.06204" lon="-1.17589">
        <ele>11.67</ele>
        <time>2021-06-30T18:15:00Z</time>
      </trkpt>
      <trkpt lat="45.06248" lon="-1.17598">
        <ele>12.63</ele>
        <time>2021-06-30T18:15:03Z</time>
      </trkpt>
      <trkpt lat="45.06261" lon="-1.17601">
        <ele>13.12</ele>
        <time>2021-06-30T18:15:04Z</time>
      </trkpt>
      <trkpt lat="45.06275" lon="-1.17609">
        <ele>13.12</ele>
        <time>2021-06-30T18:15:05Z</time>
      </trkpt>
      <trkpt lat="45.06288" lon="-1.17616">
        <ele>12.15</ele>
        <time>2021-06-30T18:15:06Z</time>
      </trkpt>
      <trkpt lat="45.063" lon="-1.17627">
        <ele>12.15</ele>
        <time>2021-06-30T18:15:07Z</time>
      </trkpt>
      <trkpt lat="45.06349" lon="-1.17671">
        <ele>11.19</ele>
        <time>2021-06-30T18:15:11Z</time>
      </trkpt>
      <trkpt lat="45.06362" lon="-1.17678">
        <ele>11.19</ele>
        <time>2021-06-30T18:15:12Z</time>
      </trkpt>
      <trkpt lat="45.06376" lon="-1.17683">
        <ele>11.19</ele>
        <time>2021-06-30T18:15:13Z</time>
      </trkpt>
      <trkpt lat="45.0639" lon="-1.17686">
        <ele>10.71</ele>
        <time>2021-06-30T18:15:14Z</time>
      </trkpt>
      <trkpt lat="45.06405" lon="-1.17688">
        <ele>10.71</ele>
        <time>2021-06-30T18:15:15Z</time>
      </trkpt>
      <trkpt lat="45.06418" lon="-1.17684">
        <ele>9.75</ele>
        <time>2021-06-30T18:15:16Z</time>
      </trkpt>
      <trkpt lat="45.06431" lon="-1.17678">
        <ele>9.75</ele>
        <time>2021-06-30T18:15:17Z</time>
      </trkpt>
      <trkpt lat="45.06446" lon="-1.17671">
        <ele>9.75</ele>
        <time>2021-06-30T18:15:18Z</time>
      </trkpt>
      <trkpt lat="45.06458" lon="-1.17664">
        <ele>9.75</ele>
        <time>2021-06-30T18:15:19Z</time>
      </trkpt>
      <trkpt lat="45.06469" lon="-1.17652">
        <ele>11.19</ele>
        <time>2021-06-30T18:15:20Z</time>
      </trkpt>
      <trkpt lat="45.0648" lon="-1.1764">
        <ele>11.67</ele>
        <time>2021-06-30T18:15:21Z</time>
      </trkpt>
      <trkpt lat="45.06491" lon="-1.17626">
        <ele>11.19</ele>
        <time>2021-06-30T18:15:22Z</time>
      </trkpt>
      <trkpt lat="45.065" lon="-1.1761">
        <ele>10.71</ele>
        <time>2021-06-30T18:15:23Z</time>
      </trkpt>
      <trkpt lat="45.06548" lon="-1.17526">
        <ele>11.19</ele>
        <time>2021-06-30T18:15:28Z</time>
      </trkpt>
      <trkpt lat="45.06557" lon="-1.17509">
        <ele>11.19</ele>
        <time>2021-06-30T18:15:29Z</time>
      </trkpt>
      <trkpt lat="45.06568" lon="-1.17501">
        <ele>10.71</ele>
        <time>2021-06-30T18:15:30Z</time>
      </trkpt>
      <trkpt lat="45.06583" lon="-1.17491">
        <ele>11.19</ele>
        <time>2021-06-30T18:15:31Z</time>
      </trkpt>
      <trkpt lat="45.06597" lon="-1.17481">
        <ele>10.71</ele>
        <time>2021-06-30T18:15:32Z</time>
      </trkpt>
      <trkpt lat="45.06706" lon="-1.17395">
        <ele>13.6</ele>
        <time>2021-06-30T18:15:39Z</time>
      </trkpt>
      <trkpt lat="45.06706" lon="-1.17395">
        <ele>12.63</ele>
        <time>2021-06-30T18:15:40Z</time>
      </trkpt>
      <trkpt lat="45.06728" lon="-1.17366">
        <ele>12.63</ele>
        <time>2021-06-30T18:15:41Z</time>
      </trkpt>
      <trkpt lat="45.06767" lon="-1.17305">
        <ele>12.15</ele>
        <time>2021-06-30T18:15:46Z</time>
      </trkpt>
      <trkpt lat="45.0679" lon="-1.17281">
        <ele>12.63</ele>
        <time>2021-06-30T18:15:47Z</time>
      </trkpt>
      <trkpt lat="45.06803" lon="-1.17269">
        <ele>13.12</ele>
        <time>2021-06-30T18:15:48Z</time>
      </trkpt>
      <trkpt lat="45.06816" lon="-1.1726">
        <ele>12.63</ele>
        <time>2021-06-30T18:15:49Z</time>
      </trkpt>
      <trkpt lat="45.06831" lon="-1.17254">
        <ele>12.15</ele>
        <time>2021-06-30T18:15:50Z</time>
      </trkpt>
      <trkpt lat="45.06846" lon="-1.17248">
        <ele>13.6</ele>
        <time>2021-06-30T18:15:51Z</time>
      </trkpt>
      <trkpt lat="45.06846" lon="-1.17248">
        <ele>14.08</ele>
        <time>2021-06-30T18:15:52Z</time>
      </trkpt>
      <trkpt lat="45.06862" lon="-1.17242">
        <ele>14.56</ele>
        <time>2021-06-30T18:15:53Z</time>
      </trkpt>
      <trkpt lat="45.06878" lon="-1.17241">
        <ele>15.04</ele>
        <time>2021-06-30T18:15:54Z</time>
      </trkpt>
      <trkpt lat="45.06895" lon="-1.17242">
        <ele>15.04</ele>
        <time>2021-06-30T18:15:55Z</time>
      </trkpt>
      <trkpt lat="45.06912" lon="-1.17243">
        <ele>15.52</ele>
        <time>2021-06-30T18:15:56Z</time>
      </trkpt>
      <trkpt lat="45.0703" lon="-1.17229">
        <ele>14.08</ele>
        <time>2021-06-30T18:16:04Z</time>
      </trkpt>
      <trkpt lat="45.07133" lon="-1.17224">
        <ele>11.19</ele>
        <time>2021-06-30T18:16:10Z</time>
      </trkpt>
      <trkpt lat="45.07133" lon="-1.17224">
        <ele>10.71</ele>
        <time>2021-06-30T18:16:11Z</time>
      </trkpt>
      <trkpt lat="45.07148" lon="-1.17227">
        <ele>9.27</ele>
        <time>2021-06-30T18:16:12Z</time>
      </trkpt>
      <trkpt lat="45.07266" lon="-1.17236">
        <ele>10.23</ele>
        <time>2021-06-30T18:16:20Z</time>
      </trkpt>
      <trkpt lat="45.07432" lon="-1.17212">
        <ele>13.12</ele>
        <time>2021-06-30T18:16:31Z</time>
      </trkpt>
      <trkpt lat="45.07483" lon="-1.17191">
        <ele>15.04</ele>
        <time>2021-06-30T18:16:34Z</time>
      </trkpt>
      <trkpt lat="45.07483" lon="-1.17191">
        <ele>15.04</ele>
        <time>2021-06-30T18:16:35Z</time>
      </trkpt>
      <trkpt lat="45.07521" lon="-1.17163">
        <ele>15.04</ele>
        <time>2021-06-30T18:16:38Z</time>
      </trkpt>
      <trkpt lat="45.07533" lon="-1.17158">
        <ele>16</ele>
        <time>2021-06-30T18:16:39Z</time>
      </trkpt>
      <trkpt lat="45.07546" lon="-1.17154">
        <ele>16</ele>
        <time>2021-06-30T18:16:40Z</time>
      </trkpt>
      <trkpt lat="45.0756" lon="-1.17153">
        <ele>16</ele>
        <time>2021-06-30T18:16:41Z</time>
      </trkpt>
      <trkpt lat="45.07574" lon="-1.17153">
        <ele>15.04</ele>
        <time>2021-06-30T18:16:42Z</time>
      </trkpt>
      <trkpt lat="45.07773" lon="-1.17156">
        <ele>14.08</ele>
        <time>2021-06-30T18:16:56Z</time>
      </trkpt>
      <trkpt lat="45.07834" lon="-1.17157">
        <ele>14.56</ele>
        <time>2021-06-30T18:17:02Z</time>
      </trkpt>
      <trkpt lat="45.07848" lon="-1.17153">
        <ele>14.56</ele>
        <time>2021-06-30T18:17:03Z</time>
      </trkpt>
      <trkpt lat="45.07854" lon="-1.17148">
        <ele>14.56</ele>
        <time>2021-06-30T18:17:04Z</time>
      </trkpt>
      <trkpt lat="45.07858" lon="-1.17144">
        <ele>15.04</ele>
        <time>2021-06-30T18:17:05Z</time>
      </trkpt>
      <trkpt lat="45.07858" lon="-1.17144">
        <ele>14.56</ele>
        <time>2021-06-30T18:17:06Z</time>
      </trkpt>
      <trkpt lat="45.07864" lon="-1.17143">
        <ele>14.08</ele>
        <time>2021-06-30T18:17:07Z</time>
      </trkpt>
      <trkpt lat="45.07868" lon="-1.17143">
        <ele>13.6</ele>
        <time>2021-06-30T18:17:08Z</time>
      </trkpt>
      <trkpt lat="45.07871" lon="-1.17142">
        <ele>14.08</ele>
        <time>2021-06-30T18:17:09Z</time>
      </trkpt>
      <trkpt lat="45.07873" lon="-1.17142">
        <ele>14.08</ele>
        <time>2021-06-30T18:17:10Z</time>
      </trkpt>
      <trkpt lat="45.07878" lon="-1.17143">
        <ele>14.08</ele>
        <time>2021-06-30T18:17:14Z</time>
      </trkpt>
      <trkpt lat="45.07879" lon="-1.17147">
        <ele>13.6</ele>
        <time>2021-06-30T18:17:15Z</time>
      </trkpt>
      <trkpt lat="45.07881" lon="-1.17153">
        <ele>13.12</ele>
        <time>2021-06-30T18:17:16Z</time>
      </trkpt>
      <trkpt lat="45.0792" lon="-1.17235">
        <ele>8.31</ele>
        <time>2021-06-30T18:17:23Z</time>
      </trkpt>
      <trkpt lat="45.08002" lon="-1.17414">
        <ele>4.46</ele>
        <time>2021-06-30T18:17:35Z</time>
      </trkpt>
      <trkpt lat="45.08093" lon="-1.17642">
        <ele>4.94</ele>
        <time>2021-06-30T18:17:50Z</time>
      </trkpt>
      <trkpt lat="45.08111" lon="-1.1769">
        <ele>6.39</ele>
        <time>2021-06-30T18:17:53Z</time>
      </trkpt>
      <trkpt lat="45.08129" lon="-1.17791">
        <ele>12.15</ele>
        <time>2021-06-30T18:17:59Z</time>
      </trkpt>
      <trkpt lat="45.0813" lon="-1.17807">
        <ele>11.67</ele>
        <time>2021-06-30T18:18:00Z</time>
      </trkpt>
      <trkpt lat="45.0812" lon="-1.17982">
        <ele>7.35</ele>
        <time>2021-06-30T18:18:10Z</time>
      </trkpt>
      <trkpt lat="45.08122" lon="-1.17998">
        <ele>8.31</ele>
        <time>2021-06-30T18:18:11Z</time>
      </trkpt>
      <trkpt lat="45.08124" lon="-1.18015">
        <ele>7.83</ele>
        <time>2021-06-30T18:18:12Z</time>
      </trkpt>
      <trkpt lat="45.08128" lon="-1.18032">
        <ele>6.87</ele>
        <time>2021-06-30T18:18:13Z</time>
      </trkpt>
      <trkpt lat="45.08134" lon="-1.18049">
        <ele>5.91</ele>
        <time>2021-06-30T18:18:14Z</time>
      </trkpt>
      <trkpt lat="45.0814" lon="-1.18065">
        <ele>6.39</ele>
        <time>2021-06-30T18:18:15Z</time>
      </trkpt>
      <trkpt lat="45.08208" lon="-1.18252">
        <ele>4.46</ele>
        <time>2021-06-30T18:18:26Z</time>
      </trkpt>
      <trkpt lat="45.08262" lon="-1.18392">
        <ele>5.42</ele>
        <time>2021-06-30T18:18:38Z</time>
      </trkpt>
      <trkpt lat="45.08283" lon="-1.18438">
        <ele>4.94</ele>
        <time>2021-06-30T18:18:42Z</time>
      </trkpt>
      <trkpt lat="45.08288" lon="-1.18449">
        <ele>4.94</ele>
        <time>2021-06-30T18:18:43Z</time>
      </trkpt>
      <trkpt lat="45.08304" lon="-1.18526">
        <ele>8.79</ele>
        <time>2021-06-30T18:18:48Z</time>
      </trkpt>
      <trkpt lat="45.08299" lon="-1.18625">
        <ele>4.94</ele>
        <time>2021-06-30T18:18:58Z</time>
      </trkpt>
      <trkpt lat="45.08298" lon="-1.18648">
        <ele>4.46</ele>
        <time>2021-06-30T18:19:01Z</time>
      </trkpt>
      <trkpt lat="45.08297" lon="-1.18654">
        <ele>4.46</ele>
        <time>2021-06-30T18:19:02Z</time>
      </trkpt>
      <trkpt lat="45.08297" lon="-1.18659">
        <ele>4.94</ele>
        <time>2021-06-30T18:19:03Z</time>
      </trkpt>
      <trkpt lat="45.08296" lon="-1.18664">
        <ele>4.46</ele>
        <time>2021-06-30T18:19:04Z</time>
      </trkpt>
      <trkpt lat="45.08291" lon="-1.18671">
        <ele>4.46</ele>
        <time>2021-06-30T18:19:05Z</time>
      </trkpt>
      <trkpt lat="45.08288" lon="-1.18672">
        <ele>4.46</ele>
        <time>2021-06-30T18:19:06Z</time>
      </trkpt>
      <trkpt lat="45.08285" lon="-1.18673">
        <ele>4.94</ele>
        <time>2021-06-30T18:19:07Z</time>
      </trkpt>
      <trkpt lat="45.08282" lon="-1.18674">
        <ele>5.42</ele>
        <time>2021-06-30T18:19:08Z</time>
      </trkpt>
      <trkpt lat="45.0828" lon="-1.18675">
        <ele>5.42</ele>
        <time>2021-06-30T18:19:09Z</time>
      </trkpt>
      <trkpt lat="45.08296" lon="-1.18663">
        <ele>5.42</ele>
        <time>2021-06-30T18:19:11Z</time>
      </trkpt>
      <trkpt lat="45.08297" lon="-1.18658">
        <ele>5.42</ele>
        <time>2021-06-30T18:19:12Z</time>
      </trkpt>
    </trkseg>
  </trk>
</gpx>